Turret, Colorado
Current Conditions -  °F | °C
As of 10:55 AM on Saturday 20 Dec 2014 (Local Time) from KANK Reporting Station
Clear Clear  
Wind Chill:   Ceiling: Unl
Heat Index:   Visibility: 10mi
Dew Point: -11°   Wind: 3mph
Humidity: 38%   Direction: 310°NW
Pressure: 30.15"   Gusts: NA
Location:  38.5561°N, 106.066°W
Report Text: KANK 201755Z AUTO 31003KT 10SM CLR 02/M11 A3015 RMK AO1 T00201110 10020 21065
Loading
Personal Weather Stations






























Interactive Weather Map New forecast layout! Learn more

10-Day Weather Forecast

Advertisements
Track Severe Weather on mobile